sensor_id;sensor_type;location;lat;lon;timestamp;P1;P2;P0
79537;PMS5003;68989;52.032;5.152;2023-05-07T00:01:25;21;19;
79537;PMS5003;68989;52.032;5.152;2023-05-07T00:03:52;27;25;
79537;PMS5003;68989;52.032;5.152;2023-05-07T00:06:19;22;20;
79537;PMS5003;68989;52.032;5.152;2023-05-07T00:08:46;25;25;
79537;PMS5003;68989;52.032;5.152;2023-05-07T00:11:13;27;25;
79537;PMS5003;68989;52.032;5.152;2023-05-07T00:13:40;28;27;
79537;PMS5003;68989;52.032;5.152;2023-05-07T00:16:07;23;22;
79537;PMS5003;68989;52.032;5.152;2023-05-07T00:18:34;23;23;
79537;PMS5003;68989;52.032;5.152;2023-05-07T00:21:01;24;23;
79537;PMS5003;68989;52.032;5.152;2023-05-07T00:23:29;28;28;
79537;PMS5003;68989;52.032;5.152;2023-05-07T00:25:56;26;26;
79537;PMS5003;68989;52.032;5.152;2023-05-07T00:28:23;27;24;
79537;PMS5003;68989;52.032;5.152;2023-05-07T00:30:50;28;26;
79537;PMS5003;68989;52.032;5.152;2023-05-07T00:33:17;25;25;
79537;PMS5003;68989;52.032;5.152;2023-05-07T00:35:45;25;25;
79537;PMS5003;68989;52.032;5.152;2023-05-07T00:38:12;26;22;
79537;PMS5003;68989;52.032;5.152;2023-05-07T00:40:38;23;23;
79537;PMS5003;68989;52.032;5.152;2023-05-07T00:43:06;27;26;
79537;PMS5003;68989;52.032;5.152;2023-05-07T00:45:32;25;24;
79537;PMS5003;68989;52.032;5.152;2023-05-07T00:48:00;25;24;
79537;PMS5003;68989;52.032;5.152;2023-05-07T00:50:29;22;22;
79537;PMS5003;68989;52.032;5.152;2023-05-07T00:52:56;21;20;
79537;PMS5003;68989;52.032;5.152;2023-05-07T00:55:24;25;24;
79537;PMS5003;68989;52.032;5.152;2023-05-07T00:57:52;25;24;
79537;PMS5003;68989;52.032;5.152;2023-05-07T01:00:19;25;20;
79537;PMS5003;68989;52.032;5.152;2023-05-07T01:02:47;21;21;
79537;PMS5003;68989;52.032;5.152;2023-05-07T01:05:14;20;20;
79537;PMS5003;68989;52.032;5.152;2023-05-07T01:07:43;22;20;
79537;PMS5003;68989;52.032;5.152;2023-05-07T01:10:10;18;18;
79537;PMS5003;68989;52.032;5.152;2023-05-07T01:12:38;20;20;
79537;PMS5003;68989;52.032;5.152;2023-05-07T01:15:07;23;22;
79537;PMS5003;68989;52.032;5.152;2023-05-07T01:17:35;20;20;
79537;PMS5003;68989;52.032;5.152;2023-05-07T01:20:03;19;19;
79537;PMS5003;68989;52.032;5.152;2023-05-07T01:22:31;24;21;
79537;PMS5003;68989;52.032;5.152;2023-05-07T01:24:59;22;22;
79537;PMS5003;68989;52.032;5.152;2023-05-07T01:27:27;18;18;
79537;PMS5003;68989;52.032;5.152;2023-05-07T01:29:54;22;21;
79537;PMS5003;68989;52.032;5.152;2023-05-07T01:32:23;20;20;
79537;PMS5003;68989;52.032;5.152;2023-05-07T01:34:55;25;22;
79537;PMS5003;68989;52.032;5.152;2023-05-07T01:37:23;24;21;
79537;PMS5003;68989;52.032;5.152;2023-05-07T01:39:52;19;19;
79537;PMS5003;68989;52.032;5.152;2023-05-07T01:42:19;19;19;
79537;PMS5003;68989;52.032;5.152;2023-05-07T01:44:47;21;19;
79537;PMS5003;68989;52.032;5.152;2023-05-07T01:47:14;23;23;
79537;PMS5003;68989;52.032;5.152;2023-05-07T01:49:43;24;22;
79537;PMS5003;68989;52.032;5.152;2023-05-07T01:52:10;22;22;
79537;PMS5003;68989;52.032;5.152;2023-05-07T01:54:38;26;26;
79537;PMS5003;68989;52.032;5.152;2023-05-07T01:57:05;19;19;
79537;PMS5003;68989;52.032;5.152;2023-05-07T01:59:32;21;20;
79537;PMS5003;68989;52.032;5.152;2023-05-07T02:01:59;20;20;
79537;PMS5003;68989;52.032;5.152;2023-05-07T02:04:26;22;21;
79537;PMS5003;68989;52.032;5.152;2023-05-07T02:06:53;20;18;
79537;PMS5003;68989;52.032;5.152;2023-05-07T02:09:20;20;20;
79537;PMS5003;68989;52.032;5.152;2023-05-07T02:11:47;22;19;
79537;PMS5003;68989;52.032;5.152;2023-05-07T02:14:15;22;19;
79537;PMS5003;68989;52.032;5.152;2023-05-07T02:16:42;23;21;
79537;PMS5003;68989;52.032;5.152;2023-05-07T02:19:08;18;18;
79537;PMS5003;68989;52.032;5.152;2023-05-07T02:21:36;19;19;
79537;PMS5003;68989;52.032;5.152;2023-05-07T02:24:03;20;20;
79537;PMS5003;68989;52.032;5.152;2023-05-07T02:26:30;18;18;
79537;PMS5003;68989;52.032;5.152;2023-05-07T02:28:57;22;19;
79537;PMS5003;68989;52.032;5.152;2023-05-07T02:31:24;23;21;
79537;PMS5003;68989;52.032;5.152;2023-05-07T02:33:52;19;18;
79537;PMS5003;68989;52.032;5.152;2023-05-07T02:36:19;18;18;
79537;PMS5003;68989;52.032;5.152;2023-05-07T02:38:47;16;16;
79537;PMS5003;68989;52.032;5.152;2023-05-07T02:41:13;18;18;
79537;PMS5003;68989;52.032;5.152;2023-05-07T02:43:40;18;18;
79537;PMS5003;68989;52.032;5.152;2023-05-07T02:46:08;21;19;
79537;PMS5003;68989;52.032;5.152;2023-05-07T02:48:35;17;17;
79537;PMS5003;68989;52.032;5.152;2023-05-07T02:51:03;17;17;
79537;PMS5003;68989;52.032;5.152;2023-05-07T02:53:31;19;17;
79537;PMS5003;68989;52.032;5.152;2023-05-07T02:55:59;15;15;
79537;PMS5003;68989;52.032;5.152;2023-05-07T02:58:27;22;22;
79537;PMS5003;68989;52.032;5.152;2023-05-07T03:00:54;20;20;
79537;PMS5003;68989;52.032;5.152;2023-05-07T03:03:21;19;18;
79537;PMS5003;68989;52.032;5.152;2023-05-07T03:05:48;21;20;
79537;PMS5003;68989;52.032;5.152;2023-05-07T03:08:16;19;18;
79537;PMS5003;68989;52.032;5.152;2023-05-07T03:10:42;17;17;
79537;PMS5003;68989;52.032;5.152;2023-05-07T03:13:09;15;15;
79537;PMS5003;68989;52.032;5.152;2023-05-07T03:15:36;21;20;
79537;PMS5003;68989;52.032;5.152;2023-05-07T03:18:03;20;20;
79537;PMS5003;68989;52.032;5.152;2023-05-07T03:20:30;20;20;
79537;PMS5003;68989;52.032;5.152;2023-05-07T03:22:58;21;20;
79537;PMS5003;68989;52.032;5.152;2023-05-07T03:25:24;20;20;
79537;PMS5003;68989;52.032;5.152;2023-05-07T03:27:52;22;20;
79537;PMS5003;68989;52.032;5.152;2023-05-07T03:30:18;19;17;
79537;PMS5003;68989;52.032;5.152;2023-05-07T03:32:45;21;20;
79537;PMS5003;68989;52.032;5.152;2023-05-07T03:35:12;18;18;
79537;PMS5003;68989;52.032;5.152;2023-05-07T03:37:40;17;17;
79537;PMS5003;68989;52.032;5.152;2023-05-07T03:40:08;20;18;
79537;PMS5003;68989;52.032;5.152;2023-05-07T03:42:35;21;21;
79537;PMS5003;68989;52.032;5.152;2023-05-07T03:45:03;20;20;
79537;PMS5003;68989;52.032;5.152;2023-05-07T03:47:31;23;23;
79537;PMS5003;68989;52.032;5.152;2023-05-07T03:49:57;20;20;
79537;PMS5003;68989;52.032;5.152;2023-05-07T03:52:24;23;23;
79537;PMS5003;68989;52.032;5.152;2023-05-07T03:54:52;20;20;
79537;PMS5003;68989;52.032;5.152;2023-05-07T03:57:19;20;20;
79537;PMS5003;68989;52.032;5.152;2023-05-07T03:59:46;20;20;
79537;PMS5003;68989;52.032;5.152;2023-05-07T04:02:13;21;20;
79537;PMS5003;68989;52.032;5.152;2023-05-07T04:04:40;20;20;
79537;PMS5003;68989;52.032;5.152;2023-05-07T04:07:07;21;20;
79537;PMS5003;68989;52.032;5.152;2023-05-07T04:09:34;19;19;
79537;PMS5003;68989;52.032;5.152;2023-05-07T04:12:01;21;20;
79537;PMS5003;68989;52.032;5.152;2023-05-07T04:14:28;18;18;
79537;PMS5003;68989;52.032;5.152;2023-05-07T04:16:55;17;17;
79537;PMS5003;68989;52.032;5.152;2023-05-07T04:19:23;24;22;
79537;PMS5003;68989;52.032;5.152;2023-05-07T04:21:50;21;21;
79537;PMS5003;68989;52.032;5.152;2023-05-07T04:24:16;22;21;
79537;PMS5003;68989;52.032;5.152;2023-05-07T04:26:43;23;23;
79537;PMS5003;68989;52.032;5.152;2023-05-07T04:29:11;24;24;
79537;PMS5003;68989;52.032;5.152;2023-05-07T04:31:38;20;20;
79537;PMS5003;68989;52.032;5.152;2023-05-07T04:34:05;25;24;
79537;PMS5003;68989;52.032;5.152;2023-05-07T04:36:32;23;20;
79537;PMS5003;68989;52.032;5.152;2023-05-07T04:38:59;26;24;
79537;PMS5003;68989;52.032;5.152;2023-05-07T04:41:26;28;26;
79537;PMS5003;68989;52.032;5.152;2023-05-07T04:43:53;23;21;
79537;PMS5003;68989;52.032;5.152;2023-05-07T04:46:20;21;21;
79537;PMS5003;68989;52.032;5.152;2023-05-07T04:48:47;20;20;
79537;PMS5003;68989;52.032;5.152;2023-05-07T04:51:15;22;21;
79537;PMS5003;68989;52.032;5.152;2023-05-07T04:53:42;22;22;
79537;PMS5003;68989;52.032;5.152;2023-05-07T04:56:09;21;21;
79537;PMS5003;68989;52.032;5.152;2023-05-07T04:58:37;20;20;
79537;PMS5003;68989;52.032;5.152;2023-05-07T05:01:03;22;22;
79537;PMS5003;68989;52.032;5.152;2023-05-07T05:03:31;21;21;
79537;PMS5003;68989;52.032;5.152;2023-05-07T05:05:58;21;21;
79537;PMS5003;68989;52.032;5.152;2023-05-07T05:08:25;23;22;
79537;PMS5003;68989;52.032;5.152;2023-05-07T05:10:52;17;17;
79537;PMS5003;68989;52.032;5.152;2023-05-07T05:13:19;25;23;
79537;PMS5003;68989;52.032;5.152;2023-05-07T05:15:46;27;26;
79537;PMS5003;68989;52.032;5.152;2023-05-07T05:18:13;29;26;
79537;PMS5003;68989;52.032;5.152;2023-05-07T05:20:40;34;34;
79537;PMS5003;68989;52.032;5.152;2023-05-07T05:23:07;30;27;
79537;PMS5003;68989;52.032;5.152;2023-05-07T05:25:35;28;28;
79537;PMS5003;68989;52.032;5.152;2023-05-07T05:28:02;35;30;
79537;PMS5003;68989;52.032;5.152;2023-05-07T05:30:29;33;31;
79537;PMS5003;68989;52.032;5.152;2023-05-07T05:32:56;32;31;
79537;PMS5003;68989;52.032;5.152;2023-05-07T05:35:23;29;28;
79537;PMS5003;68989;52.032;5.152;2023-05-07T05:37:50;34;30;
79537;PMS5003;68989;52.032;5.152;2023-05-07T05:40:17;32;29;
79537;PMS5003;68989;52.032;5.152;2023-05-07T05:42:44;34;30;
79537;PMS5003;68989;52.032;5.152;2023-05-07T05:45:11;28;28;
79537;PMS5003;68989;52.032;5.152;2023-05-07T05:47:38;41;34;
79537;PMS5003;68989;52.032;5.152;2023-05-07T05:50:06;29;28;
79537;PMS5003;68989;52.032;5.152;2023-05-07T05:52:33;35;32;
79537;PMS5003;68989;52.032;5.152;2023-05-07T05:55:00;32;31;
79537;PMS5003;68989;52.032;5.152;2023-05-07T05:57:26;40;35;
79537;PMS5003;68989;52.032;5.152;2023-05-07T05:59:53;36;34;
79537;PMS5003;68989;52.032;5.152;2023-05-07T06:02:20;39;33;
79537;PMS5003;68989;52.032;5.152;2023-05-07T06:04:47;31;31;
79537;PMS5003;68989;52.032;5.152;2023-05-07T06:07:14;32;31;
79537;PMS5003;68989;52.032;5.152;2023-05-07T06:09:41;31;29;
79537;PMS5003;68989;52.032;5.152;2023-05-07T06:12:08;31;30;
79537;PMS5003;68989;52.032;5.152;2023-05-07T06:14:36;37;35;
79537;PMS5003;68989;52.032;5.152;2023-05-07T06:17:03;35;35;
79537;PMS5003;68989;52.032;5.152;2023-05-07T06:19:30;35;34;
79537;PMS5003;68989;52.032;5.152;2023-05-07T06:21:57;35;35;
79537;PMS5003;68989;52.032;5.152;2023-05-07T06:24:24;45;42;
79537;PMS5003;68989;52.032;5.152;2023-05-07T06:26:52;41;39;
79537;PMS5003;68989;52.032;5.152;2023-05-07T06:29:19;41;40;
79537;PMS5003;68989;52.032;5.152;2023-05-07T06:31:46;38;38;
79537;PMS5003;68989;52.032;5.152;2023-05-07T06:34:13;41;38;
79537;PMS5003;68989;52.032;5.152;2023-05-07T06:36:40;38;38;
79537;PMS5003;68989;52.032;5.152;2023-05-07T06:39:07;38;37;
79537;PMS5003;68989;52.032;5.152;2023-05-07T06:41:35;36;33;
79537;PMS5003;68989;52.032;5.152;2023-05-07T06:44:02;44;42;
79537;PMS5003;68989;52.032;5.152;2023-05-07T06:46:29;39;37;
79537;PMS5003;68989;52.032;5.152;2023-05-07T06:48:56;39;38;
79537;PMS5003;68989;52.032;5.152;2023-05-07T06:51:23;38;36;
79537;PMS5003;68989;52.032;5.152;2023-05-07T06:53:50;39;37;
79537;PMS5003;68989;52.032;5.152;2023-05-07T06:56:18;41;39;
79537;PMS5003;68989;52.032;5.152;2023-05-07T06:58:44;39;36;
79537;PMS5003;68989;52.032;5.152;2023-05-07T07:01:11;39;36;
79537;PMS5003;68989;52.032;5.152;2023-05-07T07:03:38;34;34;
79537;PMS5003;68989;52.032;5.152;2023-05-07T07:06:06;41;39;
79537;PMS5003;68989;52.032;5.152;2023-05-07T07:08:33;36;36;
79537;PMS5003;68989;52.032;5.152;2023-05-07T07:11:00;36;36;
79537;PMS5003;68989;52.032;5.152;2023-05-07T07:13:27;38;36;
79537;PMS5003;68989;52.032;5.152;2023-05-07T07:15:54;35;33;
79537;PMS5003;68989;52.032;5.152;2023-05-07T07:18:21;39;37;
79537;PMS5003;68989;52.032;5.152;2023-05-07T07:20:48;40;39;
79537;PMS5003;68989;52.032;5.152;2023-05-07T07:23:15;37;36;
79537;PMS5003;68989;52.032;5.152;2023-05-07T07:25:42;37;33;
79537;PMS5003;68989;52.032;5.152;2023-05-07T07:28:09;37;36;
79537;PMS5003;68989;52.032;5.152;2023-05-07T07:30:37;44;41;
79537;PMS5003;68989;52.032;5.152;2023-05-07T07:33:05;32;31;
79537;PMS5003;68989;52.032;5.152;2023-05-07T07:35:32;36;35;
79537;PMS5003;68989;52.032;5.152;2023-05-07T07:37:59;34;33;
79537;PMS5003;68989;52.032;5.152;2023-05-07T07:40:27;40;39;
79537;PMS5003;68989;52.032;5.152;2023-05-07T07:42:54;36;36;
79537;PMS5003;68989;52.032;5.152;2023-05-07T07:45:21;43;39;
79537;PMS5003;68989;52.032;5.152;2023-05-07T07:47:48;38;37;
79537;PMS5003;68989;52.032;5.152;2023-05-07T07:50:14;36;35;
79537;PMS5003;68989;52.032;5.152;2023-05-07T07:52:41;35;35;
79537;PMS5003;68989;52.032;5.152;2023-05-07T07:55:08;38;37;
79537;PMS5003;68989;52.032;5.152;2023-05-07T07:57:36;33;32;
79537;PMS5003;68989;52.032;5.152;2023-05-07T08:00:03;38;36;
79537;PMS5003;68989;52.032;5.152;2023-05-07T08:02:31;39;35;
79537;PMS5003;68989;52.032;5.152;2023-05-07T08:04:58;35;33;
79537;PMS5003;68989;52.032;5.152;2023-05-07T08:07:25;38;38;
79537;PMS5003;68989;52.032;5.152;2023-05-07T08:09:53;36;33;
79537;PMS5003;68989;52.032;5.152;2023-05-07T08:12:19;34;32;
79537;PMS5003;68989;52.032;5.152;2023-05-07T08:14:46;33;33;
79537;PMS5003;68989;52.032;5.152;2023-05-07T08:17:13;34;34;
79537;PMS5003;68989;52.032;5.152;2023-05-07T08:19:40;34;33;
79537;PMS5003;68989;52.032;5.152;2023-05-07T08:22:08;42;38;
79537;PMS5003;68989;52.032;5.152;2023-05-07T08:24:35;38;37;
79537;PMS5003;68989;52.032;5.152;2023-05-07T08:27:03;40;36;
79537;PMS5003;68989;52.032;5.152;2023-05-07T08:29:30;36;36;
79537;PMS5003;68989;52.032;5.152;2023-05-07T08:31:57;37;37;
79537;PMS5003;68989;52.032;5.152;2023-05-07T08:34:24;31;30;
79537;PMS5003;68989;52.032;5.152;2023-05-07T08:36:51;35;33;
79537;PMS5003;68989;52.032;5.152;2023-05-07T08:39:18;32;31;
79537;PMS5003;68989;52.032;5.152;2023-05-07T08:41:45;34;33;
79537;PMS5003;68989;52.032;5.152;2023-05-07T08:44:14;40;36;
79537;PMS5003;68989;52.032;5.152;2023-05-07T08:46:46;39;39;
79537;PMS5003;68989;52.032;5.152;2023-05-07T08:49:14;35;35;
79537;PMS5003;68989;52.032;5.152;2023-05-07T08:51:42;35;34;
79537;PMS5003;68989;52.032;5.152;2023-05-07T08:54:09;36;34;
79537;PMS5003;68989;52.032;5.152;2023-05-07T08:56:37;38;38;
79537;PMS5003;68989;52.032;5.152;2023-05-07T08:59:05;32;32;
79537;PMS5003;68989;52.032;5.152;2023-05-07T09:01:32;37;36;
79537;PMS5003;68989;52.032;5.152;2023-05-07T09:03:59;32;31;
79537;PMS5003;68989;52.032;5.152;2023-05-07T09:06:26;31;29;
79537;PMS5003;68989;52.032;5.152;2023-05-07T09:08:53;23;23;
79537;PMS5003;68989;52.032;5.152;2023-05-07T09:11:20;26;26;
79537;PMS5003;68989;52.032;5.152;2023-05-07T09:13:48;36;35;
79537;PMS5003;68989;52.032;5.152;2023-05-07T09:16:15;24;24;
79537;PMS5003;68989;52.032;5.152;2023-05-07T09:18:43;20;20;
79537;PMS5003;68989;52.032;5.152;2023-05-07T09:21:10;25;21;
79537;PMS5003;68989;52.032;5.152;2023-05-07T09:23:38;21;20;
79537;PMS5003;68989;52.032;5.152;2023-05-07T09:26:05;23;23;
79537;PMS5003;68989;52.032;5.152;2023-05-07T09:28:32;17;16;
79537;PMS5003;68989;52.032;5.152;2023-05-07T09:30:59;22;19;
79537;PMS5003;68989;52.032;5.152;2023-05-07T09:33:26;16;16;
79537;PMS5003;68989;52.032;5.152;2023-05-07T09:35:54;17;17;
79537;PMS5003;68989;52.032;5.152;2023-05-07T09:38:21;26;25;
79537;PMS5003;68989;52.032;5.152;2023-05-07T09:40:52;21;21;
79537;PMS5003;68989;52.032;5.152;2023-05-07T09:43:31;21;21;
79537;PMS5003;68989;52.032;5.152;2023-05-07T09:45:59;25;25;
79537;PMS5003;68989;52.032;5.152;2023-05-07T09:48:29;19;19;
79537;PMS5003;68989;52.032;5.152;2023-05-07T09:50:58;18;18;
79537;PMS5003;68989;52.032;5.152;2023-05-07T09:53:29;15;14;
79537;PMS5003;68989;52.032;5.152;2023-05-07T09:55:57;18;15;
79537;PMS5003;68989;52.032;5.152;2023-05-07T09:58:25;21;18;
79537;PMS5003;68989;52.032;5.152;2023-05-07T10:00:53;20;18;
79537;PMS5003;68989;52.032;5.152;2023-05-07T10:03:20;16;15;
79537;PMS5003;68989;52.032;5.152;2023-05-07T10:05:50;17;15;
79537;PMS5003;68989;52.032;5.152;2023-05-07T10:08:19;19;17;
79537;PMS5003;68989;52.032;5.152;2023-05-07T10:10:47;22;22;
79537;PMS5003;68989;52.032;5.152;2023-05-07T10:13:15;14;14;
79537;PMS5003;68989;52.032;5.152;2023-05-07T10:15:43;18;18;
79537;PMS5003;68989;52.032;5.152;2023-05-07T10:18:12;23;22;
79537;PMS5003;68989;52.032;5.152;2023-05-07T10:20:40;19;19;
79537;PMS5003;68989;52.032;5.152;2023-05-07T10:23:13;22;20;
79537;PMS5003;68989;52.032;5.152;2023-05-07T10:25:44;27;26;
79537;PMS5003;68989;52.032;5.152;2023-05-07T10:28:12;19;19;
79537;PMS5003;68989;52.032;5.152;2023-05-07T10:30:48;18;18;
79537;PMS5003;68989;52.032;5.152;2023-05-07T10:33:26;15;15;
79537;PMS5003;68989;52.032;5.152;2023-05-07T10:35:55;21;18;
79537;PMS5003;68989;52.032;5.152;2023-05-07T10:38:25;20;20;
79537;PMS5003;68989;52.032;5.152;2023-05-07T10:40:54;25;24;
79537;PMS5003;68989;52.032;5.152;2023-05-07T10:43:21;22;22;
79537;PMS5003;68989;52.032;5.152;2023-05-07T10:46:09;22;21;
79537;PMS5003;68989;52.032;5.152;2023-05-07T10:48:38;26;26;
79537;PMS5003;68989;52.032;5.152;2023-05-07T10:51:34;22;21;
79537;PMS5003;68989;52.032;5.152;2023-05-07T10:54:20;24;24;
79537;PMS5003;68989;52.032;5.152;2023-05-07T10:56:48;17;17;
79537;PMS5003;68989;52.032;5.152;2023-05-07T10:59:31;22;21;
79537;PMS5003;68989;52.032;5.152;2023-05-07T11:02:01;16;15;
79537;PMS5003;68989;52.032;5.152;2023-05-07T11:04:29;14;14;
79537;PMS5003;68989;52.032;5.152;2023-05-07T11:07:29;20;18;
79537;PMS5003;68989;52.032;5.152;2023-05-07T11:09:58;21;20;
79537;PMS5003;68989;52.032;5.152;2023-05-07T11:13:00;15;15;
79537;PMS5003;68989;52.032;5.152;2023-05-07T11:15:35;23;21;
79537;PMS5003;68989;52.032;5.152;2023-05-07T11:18:05;19;19;
79537;PMS5003;68989;52.032;5.152;2023-05-07T11:20:48;23;23;
79537;PMS5003;68989;52.032;5.152;2023-05-07T11:24:22;24;24;
79537;PMS5003;68989;52.032;5.152;2023-05-07T11:26:49;24;24;
79537;PMS5003;68989;52.032;5.152;2023-05-07T11:29:17;23;23;
79537;PMS5003;68989;52.032;5.152;2023-05-07T11:31:48;22;22;
79537;PMS5003;68989;52.032;5.152;2023-05-07T11:34:16;22;21;
79537;PMS5003;68989;52.032;5.152;2023-05-07T11:36:48;25;25;
79537;PMS5003;68989;52.032;5.152;2023-05-07T11:39:23;18;18;
79537;PMS5003;68989;52.032;5.152;2023-05-07T11:41:51;28;28;
79537;PMS5003;68989;52.032;5.152;2023-05-07T11:44:18;25;24;
79537;PMS5003;68989;52.032;5.152;2023-05-07T11:46:45;22;19;
79537;PMS5003;68989;52.032;5.152;2023-05-07T11:49:12;23;23;
79537;PMS5003;68989;52.032;5.152;2023-05-07T11:51:39;27;27;
79537;PMS5003;68989;52.032;5.152;2023-05-07T11:54:07;19;19;
79537;PMS5003;68989;52.032;5.152;2023-05-07T11:56:35;18;18;
79537;PMS5003;68989;52.032;5.152;2023-05-07T11:59:02;18;18;
79537;PMS5003;68989;52.032;5.152;2023-05-07T12:01:29;16;16;
79537;PMS5003;68989;52.032;5.152;2023-05-07T12:03:55;22;20;
79537;PMS5003;68989;52.032;5.152;2023-05-07T12:06:22;21;18;
79537;PMS5003;68989;52.032;5.152;2023-05-07T12:08:49;20;20;
79537;PMS5003;68989;52.032;5.152;2023-05-07T12:11:21;16;15;
79537;PMS5003;68989;52.032;5.152;2023-05-07T12:13:49;11;11;
79537;PMS5003;68989;52.032;5.152;2023-05-07T12:16:16;16;15;
79537;PMS5003;68989;52.032;5.152;2023-05-07T12:18:45;13;13;
79537;PMS5003;68989;52.032;5.152;2023-05-07T12:21:12;12;12;
79537;PMS5003;68989;52.032;5.152;2023-05-07T12:23:40;13;13;
79537;PMS5003;68989;52.032;5.152;2023-05-07T12:26:07;18;17;
79537;PMS5003;68989;52.032;5.152;2023-05-07T12:28:36;14;14;
79537;PMS5003;68989;52.032;5.152;2023-05-07T12:31:04;15;14;
79537;PMS5003;68989;52.032;5.152;2023-05-07T12:33:31;13;13;
79537;PMS5003;68989;52.032;5.152;2023-05-07T12:35:58;14;14;
79537;PMS5003;68989;52.032;5.152;2023-05-07T12:38:34;12;12;
79537;PMS5003;68989;52.032;5.152;2023-05-07T12:41:02;16;14;
79537;PMS5003;68989;52.032;5.152;2023-05-07T12:43:30;11;11;
79537;PMS5003;68989;52.032;5.152;2023-05-07T12:45:57;11;9;
79537;PMS5003;68989;52.032;5.152;2023-05-07T12:48:27;10;9;
79537;PMS5003;68989;52.032;5.152;2023-05-07T12:50:54;9;8;
79537;PMS5003;68989;52.032;5.152;2023-05-07T12:53:23;10;9;
79537;PMS5003;68989;52.032;5.152;2023-05-07T12:55:52;8;7;
79537;PMS5003;68989;52.032;5.152;2023-05-07T12:58:23;10;9;
79537;PMS5003;68989;52.032;5.152;2023-05-07T13:00:52;9;9;
79537;PMS5003;68989;52.032;5.152;2023-05-07T13:03:21;8;8;
79537;PMS5003;68989;52.032;5.152;2023-05-07T13:05:49;8;8;
79537;PMS5003;68989;52.032;5.152;2023-05-07T13:08:24;11;10;
79537;PMS5003;68989;52.032;5.152;2023-05-07T13:10:52;11;11;
79537;PMS5003;68989;52.032;5.152;2023-05-07T13:13:20;8;8;
79537;PMS5003;68989;52.032;5.152;2023-05-07T13:15:47;12;12;
79537;PMS5003;68989;52.032;5.152;2023-05-07T13:18:14;9;9;
79537;PMS5003;68989;52.032;5.152;2023-05-07T13:20:40;10;10;
79537;PMS5003;68989;52.032;5.152;2023-05-07T13:23:07;11;11;
79537;PMS5003;68989;52.032;5.152;2023-05-07T13:25:34;9;9;
79537;PMS5003;68989;52.032;5.152;2023-05-07T13:28:01;8;8;
79537;PMS5003;68989;52.032;5.152;2023-05-07T13:30:28;9;9;
79537;PMS5003;68989;52.032;5.152;2023-05-07T13:32:55;6;6;
79537;PMS5003;68989;52.032;5.152;2023-05-07T13:35:23;7;7;
79537;PMS5003;68989;52.032;5.152;2023-05-07T13:37:50;6;6;
79537;PMS5003;68989;52.032;5.152;2023-05-07T13:40:17;7;7;
79537;PMS5003;68989;52.032;5.152;2023-05-07T13:42:43;5;5;
79537;PMS5003;68989;52.032;5.152;2023-05-07T13:45:10;11;6;
79537;PMS5003;68989;52.032;5.152;2023-05-07T13:47:37;5;5;
79537;PMS5003;68989;52.032;5.152;2023-05-07T13:50:04;7;6;
79537;PMS5003;68989;52.032;5.152;2023-05-07T13:52:32;7;6;
79537;PMS5003;68989;52.032;5.152;2023-05-07T13:54:59;6;6;
79537;PMS5003;68989;52.032;5.152;2023-05-07T13:57:26;5;5;
79537;PMS5003;68989;52.032;5.152;2023-05-07T13:59:53;7;7;
79537;PMS5003;68989;52.032;5.152;2023-05-07T14:02:19;7;6;
79537;PMS5003;68989;52.032;5.152;2023-05-07T14:04:46;6;6;
79537;PMS5003;68989;52.032;5.152;2023-05-07T14:07:12;7;7;
79537;PMS5003;68989;52.032;5.152;2023-05-07T14:09:39;5;5;
79537;PMS5003;68989;52.032;5.152;2023-05-07T14:12:07;10;8;
79537;PMS5003;68989;52.032;5.152;2023-05-07T14:14:33;8;8;
79537;PMS5003;68989;52.032;5.152;2023-05-07T14:17:00;8;8;
79537;PMS5003;68989;52.032;5.152;2023-05-07T14:19:27;10;10;
79537;PMS5003;68989;52.032;5.152;2023-05-07T14:21:53;13;11;
79537;PMS5003;68989;52.032;5.152;2023-05-07T14:24:20;10;10;
79537;PMS5003;68989;52.032;5.152;2023-05-07T14:26:47;13;12;
79537;PMS5003;68989;52.032;5.152;2023-05-07T14:29:14;10;10;
79537;PMS5003;68989;52.032;5.152;2023-05-07T14:31:41;9;9;
79537;PMS5003;68989;52.032;5.152;2023-05-07T14:34:08;10;9;
79537;PMS5003;68989;52.032;5.152;2023-05-07T14:36:35;8;8;
79537;PMS5003;68989;52.032;5.152;2023-05-07T14:39:02;9;9;
79537;PMS5003;68989;52.032;5.152;2023-05-07T14:41:30;14;14;
79537;PMS5003;68989;52.032;5.152;2023-05-07T14:43:56;12;10;
79537;PMS5003;68989;52.032;5.152;2023-05-07T14:46:23;15;15;
79537;PMS5003;68989;52.032;5.152;2023-05-07T14:48:51;12;10;
79537;PMS5003;68989;52.032;5.152;2023-05-07T14:51:17;11;11;
79537;PMS5003;68989;52.032;5.152;2023-05-07T14:53:44;10;10;
79537;PMS5003;68989;52.032;5.152;2023-05-07T14:56:11;12;12;
79537;PMS5003;68989;52.032;5.152;2023-05-07T14:58:37;7;7;
79537;PMS5003;68989;52.032;5.152;2023-05-07T15:01:04;13;13;
79537;PMS5003;68989;52.032;5.152;2023-05-07T15:03:31;12;12;
79537;PMS5003;68989;52.032;5.152;2023-05-07T15:05:57;14;14;
79537;PMS5003;68989;52.032;5.152;2023-05-07T15:08:24;12;11;
79537;PMS5003;68989;52.032;5.152;2023-05-07T15:10:51;12;10;
79537;PMS5003;68989;52.032;5.152;2023-05-07T15:13:18;16;13;
79537;PMS5003;68989;52.032;5.152;2023-05-07T15:15:45;19;17;
79537;PMS5003;68989;52.032;5.152;2023-05-07T15:18:12;16;14;
79537;PMS5003;68989;52.032;5.152;2023-05-07T15:20:39;12;12;
79537;PMS5003;68989;52.032;5.152;2023-05-07T15:23:07;14;14;
79537;PMS5003;68989;52.032;5.152;2023-05-07T15:25:35;10;10;
79537;PMS5003;68989;52.032;5.152;2023-05-07T15:28:03;12;10;
79537;PMS5003;68989;52.032;5.152;2023-05-07T15:30:29;13;11;
79537;PMS5003;68989;52.032;5.152;2023-05-07T15:32:56;10;10;
79537;PMS5003;68989;52.032;5.152;2023-05-07T15:35:23;15;14;
79537;PMS5003;68989;52.032;5.152;2023-05-07T15:37:50;11;11;
79537;PMS5003;68989;52.032;5.152;2023-05-07T15:40:18;7;7;
79537;PMS5003;68989;52.032;5.152;2023-05-07T15:42:45;7;7;
79537;PMS5003;68989;52.032;5.152;2023-05-07T15:45:12;8;8;
79537;PMS5003;68989;52.032;5.152;2023-05-07T15:47:39;8;8;
79537;PMS5003;68989;52.032;5.152;2023-05-07T15:50:06;11;11;
79537;PMS5003;68989;52.032;5.152;2023-05-07T15:52:34;8;8;
79537;PMS5003;68989;52.032;5.152;2023-05-07T15:55:01;9;9;
79537;PMS5003;68989;52.032;5.152;2023-05-07T15:57:28;10;10;
79537;PMS5003;68989;52.032;5.152;2023-05-07T15:59:55;10;10;
79537;PMS5003;68989;52.032;5.152;2023-05-07T16:02:21;8;8;
79537;PMS5003;68989;52.032;5.152;2023-05-07T16:04:48;10;9;
79537;PMS5003;68989;52.032;5.152;2023-05-07T16:07:15;10;8;
79537;PMS5003;68989;52.032;5.152;2023-05-07T16:09:41;7;7;
79537;PMS5003;68989;52.032;5.152;2023-05-07T16:12:08;7;7;
79537;PMS5003;68989;52.032;5.152;2023-05-07T16:14:35;9;9;
79537;PMS5003;68989;52.032;5.152;2023-05-07T16:17:01;8;8;
79537;PMS5003;68989;52.032;5.152;2023-05-07T16:19:28;9;9;
79537;PMS5003;68989;52.032;5.152;2023-05-07T16:21:55;11;11;
79537;PMS5003;68989;52.032;5.152;2023-05-07T16:24:22;12;12;
79537;PMS5003;68989;52.032;5.152;2023-05-07T16:26:48;11;11;